Time;durP1;ratioP1;P1;durP2;ratioP2;P2;SDS_P1;SDS_P2;PMS_P1;PMS_P2;Temp;Humidity;BMP_temperature;BMP_pressure;BME280_temperature;BME280_humidity;BME280_pressure;Samples;Min_cycle;Max_cycle;Signal;HPM_P1;HPM_P2
2023/02/09 00:01:28;;;;;;;47.83;26.98;;;;;;;3.59;55.54;102611.69;5074777;28;20067;-68
2023/02/09 00:03:59;;;;;;;47.00;27.23;;;;;;;3.44;55.77;102614.72;5076550;28;20056;-67
2023/02/09 00:06:28;;;;;;;47.15;27.20;;;;;;;3.60;55.92;102620.66;5076876;28;20055;-67
2023/02/09 00:08:57;;;;;;;50.42;27.23;;;;;;;3.19;57.31;102618.44;5075873;28;20056;-68
2023/02/09 00:14:15;;;;;;;42.83;24.63;;;;;;;3.51;56.63;102613.81;5077528;28;20483;-67
2023/02/09 00:16:44;;;;;;;42.65;23.55;;;;;;;3.23;56.69;102604.16;5062740;28;20311;-68
2023/02/09 00:19:13;;;;;;;44.13;23.90;;;;;;;3.29;56.35;102602.47;5069689;28;20071;-68
2023/02/09 00:21:40;;;;;;;42.92;23.50;;;;;;;3.14;56.83;102607.34;5076626;28;20053;-67
2023/02/09 00:24:11;;;;;;;43.08;23.60;;;;;;;3.15;56.79;102600.88;5077182;28;20389;-67
2023/02/09 00:26:39;;;;;;;40.90;22.63;;;;;;;3.02;56.67;102600.94;5077399;28;20044;-67
2023/02/09 00:29:08;;;;;;;39.08;22.02;;;;;;;3.27;56.03;102602.69;5077534;28;20040;-67
2023/02/09 00:31:35;;;;;;;39.95;23.60;;;;;;;3.26;56.28;102603.72;5074770;28;20067;-67
2023/02/09 00:34:04;;;;;;;40.35;22.50;;;;;;;3.06;56.14;102596.72;5059583;28;20048;-68
2023/02/09 00:36:32;;;;;;;41.88;21.52;;;;;;;3.05;56.28;102600.53;5075338;28;20044;-66
2023/02/09 00:39:00;;;;;;;37.13;21.45;;;;;;;3.27;55.81;102604.56;5075384;28;20040;-67
2023/02/09 00:44:14;;;;;;;39.03;20.70;;;;;;;3.06;55.88;102597.56;5076894;28;20051;-67
2023/02/09 00:46:42;;;;;;;35.22;20.70;;;;;;;2.85;56.56;102597.91;5058057;28;20044;-67
2023/02/09 00:49:09;;;;;;;37.53;20.25;;;;;;;2.98;56.11;102592.38;5075350;28;20051;-67
2023/02/09 00:51:37;;;;;;;34.78;20.38;;;;;;;3.21;55.72;102587.22;5076188;28;20051;-67
2023/02/09 00:54:04;;;;;;;37.85;21.50;;;;;;;2.94;56.33;102595.75;5076396;28;20048;-67
2023/02/09 00:56:31;;;;;;;38.17;20.30;;;;;;;2.96;56.78;102593.66;5075841;28;20411;-67
2023/02/09 00:58:59;;;;;;;38.92;20.52;;;;;;;3.05;56.71;102597.78;5075981;28;20396;-67
2023/02/09 01:01:26;;;;;;;37.45;20.50;;;;;;;3.01;56.38;102599.28;5073195;28;20514;-67
2023/02/09 01:03:54;;;;;;;35.33;20.70;;;;;;;3.08;56.43;102597.34;5076460;28;20491;-68
2023/02/09 01:06:21;;;;;;;33.35;19.52;;;;;;;3.05;56.48;102600.53;5074511;28;20048;-67
2023/02/09 01:08:49;;;;;;;34.38;20.50;;;;;;;2.91;56.91;102594.28;5075273;28;20064;-68
2023/02/09 01:11:17;;;;;;;35.22;19.73;;;;;;;2.98;56.68;102600.53;5074579;28;20052;-67
2023/02/09 01:13:45;;;;;;;31.95;18.98;;;;;;;3.21;55.79;102598.09;5069858;28;20041;-68
2023/02/09 01:16:15;;;;;;;35.00;18.52;;;;;;;3.35;54.99;102596.97;5065346;28;20044;-68
2023/02/09 01:18:43;;;;;;;29.80;16.85;;;;;;;3.33;54.58;102598.22;5038734;28;20045;-68
2023/02/09 01:21:16;;;;;;;32.00;17.55;;;;;;;3.08;55.18;102603.63;5062036;28;20052;-67
2023/02/09 01:23:44;;;;;;;32.00;18.13;;;;;;;2.97;55.46;102601.59;5075880;28;20041;-68
2023/02/09 01:26:13;;;;;;;31.98;17.80;;;;;;;2.96;55.95;102602.66;5075049;28;20372;-68
2023/02/09 01:28:41;;;;;;;31.42;17.48;;;;;;;3.04;55.79;102596.94;5075778;28;20407;-67
2023/02/09 01:31:30;;;;;;;33.65;18.23;;;;;;;2.99;56.11;102607.66;5075386;28;20047;-67
2023/02/09 01:33:59;;;;;;;30.85;17.08;;;;;;;3.21;55.64;102602.69;5074713;28;20500;-67
2023/02/09 01:36:29;;;;;;;28.27;17.67;;;;;;;3.20;55.54;102610.06;5073998;28;20044;-67
2023/02/09 01:38:58;;;;;;;30.48;16.17;;;;;;;3.22;55.38;102607.97;5074163;28;20044;-67
2023/02/09 01:41:26;;;;;;;28.77;17.60;;;;;;;3.21;54.84;102605.44;5072873;28;20387;-67
2023/02/09 01:44:04;;;;;;;29.02;16.95;;;;;;;3.13;55.40;102616.59;5074271;28;20055;-67
2023/02/09 01:46:33;;;;;;;29.95;16.85;;;;;;;2.98;55.57;102607.88;5072070;28;20520;-67
2023/02/09 01:49:11;;;;;;;29.05;16.75;;;;;;;2.99;55.91;102610.38;5056058;28;20045;-67
2023/02/09 01:51:57;;;;;;;28.80;16.80;;;;;;;3.01;55.78;102605.56;5061635;28;20460;-67
2023/02/09 01:54:28;;;;;;;30.58;16.38;;;;;;;3.25;55.43;102607.50;5054130;28;20041;-66
2023/02/09 01:57:02;;;;;;;27.15;16.40;;;;;;;2.81;55.95;102601.25;5067737;28;20056;-68
2023/02/09 01:59:29;;;;;;;27.70;16.10;;;;;;;2.97;55.66;102609.75;5072191;28;20041;-67
2023/02/09 02:01:57;;;;;;;29.55;16.52;;;;;;;2.98;55.85;102605.97;5073600;28;20048;-67
2023/02/09 02:04:24;;;;;;;26.77;16.33;;;;;;;2.87;56.11;102603.97;5058222;28;20052;-67
2023/02/09 02:06:54;;;;;;;32.22;16.45;;;;;;;2.99;56.04;102606.81;5073689;28;20407;-67
2023/02/09 02:09:21;;;;;;;35.72;17.33;;;;;;;2.91;56.23;102602.44;5074585;28;20389;-68
2023/02/09 02:11:48;;;;;;;30.35;16.58;;;;;;;3.01;56.22;102604.72;5073027;28;20048;-66
2023/02/09 02:14:36;;;;;;;28.08;17.38;;;;;;;3.04;55.96;102610.56;5075159;28;20059;-67
2023/02/09 02:17:37;;;;;;;29.75;17.70;;;;;;;2.95;56.04;102616.47;5067284;28;20103;-67
2023/02/09 02:20:26;;;;;;;27.95;16.00;;;;;;;2.95;56.34;102611.88;5053731;28;20554;-67
2023/02/09 02:23:21;;;;;;;29.83;17.92;;;;;;;2.77;56.69;102613.63;5059149;28;20044;-67
2023/02/09 02:26:21;;;;;;;27.73;16.92;;;;;;;2.87;56.68;102617.56;5041751;28;20052;-68
2023/02/09 02:29:07;;;;;;;;;;;;;;;2.90;56.87;102619.00;5071009;28;20064;-67
2023/02/09 02:32:05;;;;;;;30.92;16.92;;;;;;;2.66;57.34;102623.31;5068713;28;19927;-67
2023/02/09 02:34:44;;;;;;;31.95;17.05;;;;;;;2.81;57.07;102615.69;5054384;28;20060;-67
2023/02/09 02:37:18;;;;;;;24.17;15.90;;;;;;;2.51;57.08;102605.56;5060536;28;20056;-67
2023/02/09 02:39:51;;;;;;;27.90;16.05;;;;;;;2.41;57.97;102614.16;5053317;28;20049;-68
2023/02/09 02:45:33;;;;;;;29.27;15.90;;;;;;;2.54;57.55;102611.41;5053768;28;20049;-68
2023/02/09 02:48:35;;;;;;;26.23;15.25;;;;;;;2.50;57.58;102609.31;5065546;28;20598;-68
2023/02/09 02:51:14;;;;;;;26.00;15.27;;;;;;;2.53;57.07;102611.63;5071742;28;20060;-68
2023/02/09 02:53:47;;;;;;;28.55;15.05;;;;;;;2.79;56.67;102606.91;5050140;28;20423;-67
2023/02/09 02:56:18;;;;;;;26.15;15.10;;;;;;;2.77;56.35;102609.00;5061958;28;20049;-67
2023/02/09 02:58:48;;;;;;;23.85;14.23;;;;;;;2.87;55.96;102608.56;5056572;28;20056;-68
2023/02/09 03:01:20;;;;;;;23.35;14.27;;;;;;;2.74;56.53;102614.03;5068882;28;20041;-66
2023/02/09 03:03:47;;;;;;;25.48;14.55;;;;;;;2.84;56.46;102609.00;5053426;28;20044;-67
2023/02/09 03:06:15;;;;;;;29.58;15.07;;;;;;;2.64;56.91;102616.38;5061216;28;20040;-68
2023/02/09 03:08:53;;;;;;;23.80;14.88;;;;;;;2.62;57.13;102611.16;5074397;28;20052;-67
2023/02/09 03:11:22;;;;;;;28.00;15.35;;;;;;;2.62;57.22;102616.59;5072287;28;20053;-68
2023/02/09 03:13:58;;;;;;;24.20;14.65;;;;;;;2.67;57.20;102610.53;5056454;28;20049;-67
2023/02/09 03:16:42;;;;;;;29.05;16.10;;;;;;;2.35;57.80;102604.16;5062767;28;20048;-68
2023/02/09 03:19:22;;;;;;;24.35;14.63;;;;;;;2.42;58.24;102606.84;5053874;28;20037;-67
2023/02/09 03:21:59;;;;;;;26.38;15.27;;;;;;;2.12;58.98;102614.66;5066383;28;20429;-68
2023/02/09 03:24:43;;;;;;;23.52;15.10;;;;;;;2.35;58.73;102608.75;5071789;28;20048;-67
2023/02/09 03:27:14;;;;;;;26.30;15.30;;;;;;;2.40;58.05;102606.22;5069402;28;20052;-67
2023/02/09 03:29:44;;;;;;;28.20;15.15;;;;;;;2.39;58.32;102608.09;5063490;28;20036;-67
2023/02/09 03:32:13;;;;;;;29.38;15.38;;;;;;;2.36;58.41;102613.13;5069270;28;20041;-67
2023/02/09 03:34:41;;;;;;;33.08;17.75;;;;;;;2.03;59.33;102611.31;5075765;28;20057;-68
2023/02/09 03:37:08;;;;;;;35.08;18.90;;;;;;;1.81;60.70;102611.75;5075974;28;20060;-67
2023/02/09 03:39:36;;;;;;;34.38;19.48;;;;;;;1.74;61.20;102616.38;5077344;28;20044;-67
2023/02/09 03:42:03;;;;;;;36.83;20.38;;;;;;;1.79;61.57;102609.25;5071176;28;20051;-67
2023/02/09 03:44:31;;;;;;;38.78;21.10;;;;;;;1.91;60.96;102599.44;5077808;28;20056;-67
2023/02/09 03:47:00;;;;;;;37.30;20.63;;;;;;;2.06;60.21;102607.34;5074712;28;20045;-67
2023/02/09 03:49:32;;;;;;;37.72;20.30;;;;;;;2.07;60.12;102601.72;5076336;28;20041;-67
2023/02/09 03:52:01;;;;;;;35.33;19.67;;;;;;;1.90;60.53;102591.50;5076364;28;20044;-68
2023/02/09 03:54:29;;;;;;;32.35;19.38;;;;;;;2.09;60.67;102587.91;5076113;28;20049;-67
2023/02/09 03:56:58;;;;;;;36.90;19.02;;;;;;;2.34;59.83;102598.94;5059354;28;20063;-67
2023/02/09 03:59:27;;;;;;;34.63;20.30;;;;;;;2.37;59.17;102604.78;5077500;28;20048;-67
2023/02/09 04:01:56;;;;;;;32.78;19.30;;;;;;;2.27;59.75;102599.78;5074753;28;20303;-68
2023/02/09 04:04:25;;;;;;;31.42;18.02;;;;;;;2.22;59.84;102599.59;5076323;28;20064;-67
2023/02/09 04:06:52;;;;;;;28.65;16.90;;;;;;;2.45;59.31;102611.84;5075879;28;20063;-68
2023/02/09 04:09:20;;;;;;;28.88;17.95;;;;;;;1.94;59.95;102623.44;5077113;28;20072;-67
2023/02/09 04:11:48;;;;;;;31.45;17.08;;;;;;;1.93;60.60;102616.38;5077069;28;20048;-67
2023/02/09 04:14:16;;;;;;;31.98;16.50;;;;;;;1.89;60.68;102620.53;5056777;28;20064;-67
2023/02/09 04:16:43;;;;;;;25.15;15.70;;;;;;;1.66;61.31;102611.97;5067964;28;20058;-67
2023/02/09 04:19:11;;;;;;;26.23;15.88;;;;;;;1.53;61.93;102608.41;5077342;28;20036;-67
2023/02/09 04:21:38;;;;;;;30.95;16.45;;;;;;;1.89;61.16;102609.66;5075562;28;20051;-68
2023/02/09 04:24:06;;;;;;;26.40;15.80;;;;;;;2.16;59.79;102600.41;5074257;28;20491;-69
2023/02/09 04:26:34;;;;;;;31.10;16.17;;;;;;;2.26;59.57;102600.00;5076598;28;20041;-68
2023/02/09 04:29:02;;;;;;;25.75;15.75;;;;;;;2.45;58.69;102593.66;5077137;28;20487;-69
2023/02/09 04:31:30;;;;;;;26.65;14.43;;;;;;;2.45;59.03;102598.25;5066064;28;20049;-68
2023/02/09 04:33:57;;;;;;;25.90;15.00;;;;;;;2.24;59.07;102592.06;5056238;28;20083;-68
2023/02/09 04:36:25;;;;;;;28.50;15.50;;;;;;;2.28;58.61;102593.28;5048764;28;20047;-68
2023/02/09 04:38:52;;;;;;;27.92;15.43;;;;;;;2.18;59.29;102598.31;5075625;28;20056;-67
2023/02/09 04:41:19;;;;;;;28.05;15.85;;;;;;;2.00;59.60;102600.88;5075614;28;20044;-67
2023/02/09 04:43:47;;;;;;;26.83;15.13;;;;;;;2.00;59.79;102600.88;5074943;28;20048;-67
2023/02/09 04:46:15;;;;;;;30.40;16.15;;;;;;;2.09;59.33;102594.16;5068722;28;20048;-67
2023/02/09 04:48:43;;;;;;;28.15;15.18;;;;;;;2.11;59.44;102583.09;5056941;28;20057;-67
2023/02/09 04:51:11;;;;;;;26.08;15.60;;;;;;;2.00;59.65;102589.16;5063469;28;20052;-68
2023/02/09 04:53:39;;;;;;;27.67;15.32;;;;;;;2.09;59.59;102582.47;5057571;28;20048;-67
2023/02/09 04:56:06;;;;;;;29.85;15.70;;;;;;;1.86;59.87;102587.50;5063374;28;20051;-67
2023/02/09 05:01:22;;;;;;;27.15;15.82;;;;;;;1.66;61.49;102565.78;5073170;28;20060;-67
2023/02/09 05:03:49;;;;;;;;;;;;;;;1.67;61.03;102567.47;5075796;28;20059;-68
2023/02/09 05:06:17;;;;;;;31.27;16.70;;;;;;;1.55;61.23;102571.84;5075860;28;19921;-67
2023/02/09 05:08:45;;;;;;;34.53;17.98;;;;;;;1.29;62.08;102582.69;5066336;28;20057;-68
2023/02/09 05:11:12;;;;;;;33.20;17.13;;;;;;;1.55;61.63;102585.41;5079421;28;20525;-68
2023/02/09 05:13:40;;;;;;;30.08;17.52;;;;;;;2.13;60.31;102600.84;5075045;28;20170;-66
2023/02/09 05:16:10;;;;;;;33.22;18.58;;;;;;;1.87;60.32;102616.34;5070683;28;20075;-67
2023/02/09 05:18:37;;;;;;;30.65;18.17;;;;;;;1.71;60.63;102623.03;5074872;28;20119;-68
2023/02/09 05:21:05;;;;;;;31.02;18.13;;;;;;;1.62;61.15;102623.47;5075264;28;20542;-67
2023/02/09 05:23:32;;;;;;;32.78;18.20;;;;;;;1.61;61.00;102630.75;5075870;28;20052;-68
2023/02/09 05:25:59;;;;;;;34.72;18.80;;;;;;;1.55;61.17;102645.16;5074496;28;20059;-67
2023/02/09 05:28:27;;;;;;;31.55;18.27;;;;;;;1.72;60.90;102643.75;5075285;28;20048;-68
2023/02/09 05:30:54;;;;;;;30.63;17.70;;;;;;;2.03;60.49;102648.53;5073801;28;20357;-67
2023/02/09 05:33:23;;;;;;;32.33;18.75;;;;;;;2.13;59.96;102646.22;5074474;28;20056;-69
2023/02/09 05:35:51;;;;;;;33.58;17.98;;;;;;;1.78;60.02;102644.78;5073429;28;20055;-68
2023/02/09 05:38:18;;;;;;;35.10;17.73;;;;;;;1.50;61.24;102646.84;5075687;28;20551;-68
2023/02/09 05:40:48;;;;;;;32.67;19.02;;;;;;;1.59;61.62;102638.28;5075033;28;20048;-67
2023/02/09 05:43:22;;;;;;;33.10;19.17;;;;;;;1.78;60.94;102636.63;5075780;28;20057;-68
2023/02/09 05:45:50;;;;;;;37.00;19.35;;;;;;;2.01;59.88;102631.59;5074510;28;20048;-68
2023/02/09 05:48:18;;;;;;;32.58;19.58;;;;;;;2.01;60.65;102632.44;5054219;28;20053;-68
2023/02/09 05:50:46;;;;;;;35.75;19.40;;;;;;;2.12;60.34;102634.53;5058251;28;20039;-68
2023/02/09 05:53:15;;;;;;;34.55;18.75;;;;;;;1.58;61.70;102646.63;5075482;28;20130;-68
2023/02/09 05:55:42;;;;;;;35.28;19.35;;;;;;;1.77;61.51;102638.50;5073700;28;20049;-69
2023/02/09 05:58:10;;;;;;;33.72;18.58;;;;;;;1.37;62.21;102653.09;5074009;28;21026;-68
2023/02/09 06:00:37;;;;;;;32.80;18.63;;;;;;;1.46;62.88;102638.28;5056149;28;20048;-69
2023/02/09 06:03:05;;;;;;;36.95;20.02;;;;;;;1.67;62.01;102650.84;5056482;28;20041;-69
2023/02/09 06:05:32;;;;;;;35.53;19.23;;;;;;;1.80;61.72;102640.81;5059599;28;20056;-69
2023/02/09 06:07:59;;;;;;;33.35;18.63;;;;;;;1.90;61.76;102640.41;5075295;28;20048;-68
2023/02/09 06:10:27;;;;;;;37.75;19.27;;;;;;;1.73;61.64;102655.41;5072811;28;20519;-68
2023/02/09 06:12:54;;;;;;;34.17;19.83;;;;;;;1.44;62.60;102645.78;5067702;28;20044;-69
2023/02/09 06:15:21;;;;;;;36.42;19.90;;;;;;;1.36;62.65;102658.72;5056164;28;20068;-70
2023/02/09 06:17:49;;;;;;;36.95;20.20;;;;;;;1.03;64.21;102656.75;5065727;28;20118;-68
2023/02/09 06:20:16;;;;;;;35.25;20.30;;;;;;;1.07;63.96;102658.00;5074610;28;20051;-69
2023/02/09 06:22:44;;;;;;;36.03;20.35;;;;;;;1.51;63.45;102652.06;5056697;28;20056;-70
2023/02/09 06:25:11;;;;;;;40.85;20.75;;;;;;;1.77;62.45;102646.66;5075025;28;20049;-69
2023/02/09 06:27:39;;;;;;;38.05;21.05;;;;;;;1.65;62.40;102658.34;5072703;28;20048;-68
2023/02/09 06:30:07;;;;;;;37.10;20.45;;;;;;;1.26;63.60;102661.81;5064770;28;20550;-68
2023/02/09 06:32:34;;;;;;;39.45;21.45;;;;;;;1.12;64.41;102671.81;5057157;28;20063;-68
2023/02/09 06:35:01;;;;;;;39.63;20.65;;;;;;;1.19;64.63;102671.81;5065405;28;20049;-68
2023/02/09 06:37:32;;;;;;;39.60;20.90;;;;;;;0.93;65.27;102669.84;5073842;28;20056;-67
2023/02/09 06:40:00;;;;;;;40.47;21.23;;;;;;;1.20;64.75;102669.94;5074679;28;20056;-68
2023/02/09 06:42:42;;;;;;;39.58;22.05;;;;;;;1.21;64.57;102675.16;5074249;28;20051;-68
2023/02/09 06:45:13;;;;;;;36.88;21.08;;;;;;;1.23;65.07;102680.38;5058295;28;20068;-67
2023/02/09 06:47:41;;;;;;;47.13;22.00;;;;;;;1.73;64.07;102680.72;5073092;28;20049;-68
2023/02/09 06:50:10;;;;;;;41.08;21.85;;;;;;;1.89;62.81;102680.31;5074598;28;20047;-67
2023/02/09 06:52:37;;;;;;;40.72;21.40;;;;;;;1.87;62.39;102667.97;5074283;28;20059;-67
2023/02/09 06:55:06;;;;;;;40.70;22.83;;;;;;;1.64;63.27;102681.94;5073396;28;20049;-69
2023/02/09 06:57:33;;;;;;;44.00;21.52;;;;;;;1.63;63.39;102688.44;5070566;28;20416;-67
2023/02/09 07:00:06;;;;;;;43.78;22.73;;;;;;;1.74;62.57;102686.97;5036635;28;20091;-67
2023/02/09 07:02:34;;;;;;;38.70;21.83;;;;;;;1.84;62.80;102696.41;5058883;28;20052;-67
2023/02/09 07:05:01;;;;;;;47.90;21.52;;;;;;;1.82;62.31;102700.34;5055024;28;20052;-67
2023/02/09 07:07:29;;;;;;;45.75;25.58;;;;;;;1.99;62.12;102686.16;5074803;28;20049;-67
2023/02/09 07:09:56;;;;;;;45.00;24.77;;;;;;;1.84;61.87;102695.56;5078267;28;20040;-67
2023/02/09 07:12:23;;;;;;;44.58;23.88;;;;;;;1.54;62.77;102700.53;5076919;28;20068;-67
2023/02/09 07:14:51;;;;;;;45.42;21.77;;;;;;;1.79;62.18;102687.19;5077308;28;20055;-67
2023/02/09 07:17:19;;;;;;;39.10;22.50;;;;;;;1.79;62.15;102695.34;5076495;28;20036;-67
2023/02/09 07:19:46;;;;;;;45.10;21.27;;;;;;;1.73;62.09;102697.00;5076205;28;20044;-66
2023/02/09 07:22:14;;;;;;;38.58;20.92;;;;;;;1.59;62.54;102694.47;5076386;28;20047;-66
2023/02/09 07:24:41;;;;;;;42.75;21.10;;;;;;;1.62;61.66;102680.50;5058137;28;20056;-66
2023/02/09 07:27:08;;;;;;;38.22;21.60;;;;;;;1.74;61.69;102693.25;5072616;28;20438;-67
2023/02/09 07:29:36;;;;;;;37.65;20.63;;;;;;;1.85;61.19;102702.66;5077512;28;20049;-67
2023/02/09 07:32:05;;;;;;;41.25;20.70;;;;;;;1.48;62.01;102705.94;5075930;28;20430;-69
2023/02/09 07:34:34;;;;;;;50.42;22.17;;;;;;;1.42;62.08;102715.75;5078311;28;20411;-67
2023/02/09 07:37:02;;;;;;;38.13;21.00;;;;;;;1.76;60.84;102702.00;5064438;28;20048;-66
2023/02/09 07:39:30;;;;;;;37.40;21.27;;;;;;;1.68;60.81;102696.78;5061197;28;20049;-66
2023/02/09 07:41:58;;;;;;;42.85;21.98;;;;;;;1.68;60.42;102702.22;5073773;28;20399;-67
2023/02/09 07:44:39;;;;;;;39.70;22.85;;;;;;;1.77;60.19;102708.28;5057383;28;20055;-66
2023/02/09 07:47:06;;;;;;;43.90;22.55;;;;;;;1.58;60.59;102719.97;5069269;28;20443;-66
2023/02/09 07:49:37;;;;;;;42.90;23.70;;;;;;;1.81;60.25;102736.72;5068373;28;20045;-66
2023/02/09 07:52:04;;;;;;;53.83;23.58;;;;;;;1.77;60.34;102733.59;5073381;28;20056;-69
2023/02/09 07:54:32;;;;;;;46.60;23.90;;;;;;;1.75;60.69;102738.38;5040579;28;20048;-69
2023/02/09 07:56:59;;;;;;;44.25;24.02;;;;;;;1.92;60.43;102744.25;5055739;28;20041;-74
2023/02/09 07:59:26;;;;;;;43.47;23.83;;;;;;;2.08;60.03;102741.13;5059114;28;20049;-76
2023/02/09 08:01:54;;;;;;;50.35;24.02;;;;;;;2.18;59.73;102749.72;5049374;28;20063;-74
2023/02/09 08:04:22;;;;;;;46.50;24.63;;;;;;;2.19;59.01;102754.97;5062735;28;20249;-73
2023/02/09 08:06:52;;;;;;;41.13;23.70;;;;;;;2.23;58.95;102758.91;5062875;28;20049;-74
2023/02/09 08:09:19;;;;;;;43.55;24.27;;;;;;;2.15;58.68;102763.72;5070285;28;20052;-72
2023/02/09 08:12:01;;;;;;;48.00;25.80;;;;;;;2.12;59.07;102759.56;5057560;28;20496;-73
2023/02/09 08:14:38;;;;;;;47.78;25.25;;;;;;;2.11;58.55;102773.38;5066053;28;20053;-69
2023/02/09 08:17:21;;;;;;;47.33;24.52;;;;;;;1.96;59.20;102778.97;5062021;28;20067;-68
2023/02/09 08:19:53;;;;;;;42.03;24.00;;;;;;;1.90;58.95;102785.22;5060391;28;20048;-67
2023/02/09 08:22:22;;;;;;;54.60;25.05;;;;;;;1.92;59.47;102791.28;5052270;28;20392;-67
2023/02/09 08:24:50;;;;;;;40.20;24.48;;;;;;;2.09;59.28;102791.75;5065685;28;20047;-69
2023/02/09 08:27:18;;;;;;;51.22;25.25;;;;;;;2.28;58.38;102791.75;5064802;28;20044;-70
2023/02/09 08:29:45;;;;;;;43.88;23.98;;;;;;;2.22;57.96;102789.03;5068933;28;20423;-69
2023/02/09 08:32:15;;;;;;;41.03;25.10;;;;;;;2.34;58.10;102787.38;5050978;28;20052;-69
2023/02/09 08:34:42;;;;;;;48.92;24.55;;;;;;;2.62;57.85;102806.19;5068398;28;20423;-67
2023/02/09 08:37:18;;;;;;;45.33;24.48;;;;;;;2.44;57.43;102808.72;5055010;28;20056;-66
2023/02/09 08:39:47;;;;;;;40.13;24.10;;;;;;;2.48;57.38;102802.63;5053188;28;20052;-66
2023/02/09 08:42:14;;;;;;;44.60;24.00;;;;;;;2.80;57.81;102815.41;5073240;28;20052;-69
2023/02/09 08:44:41;;;;;;;41.10;23.73;;;;;;;2.67;57.15;102806.41;5070689;28;20045;-68
2023/02/09 08:47:12;;;;;;;37.90;23.17;;;;;;;2.94;57.09;102806.16;5071360;28;20037;-72
2023/02/09 08:49:43;;;;;;;46.08;26.80;;;;;;;2.99;56.46;102805.53;5073628;28;20064;-67
2023/02/09 08:52:14;;;;;;;51.45;31.35;;;;;;;3.04;56.48;102798.41;5068791;28;20036;-66
2023/02/09 08:54:41;;;;;;;45.67;24.58;;;;;;;2.76;56.71;102813.28;5072454;28;20037;-65
2023/02/09 08:57:09;;;;;;;45.00;24.73;;;;;;;2.75;56.40;102811.63;5068020;28;20048;-66
2023/02/09 08:59:36;;;;;;;44.63;23.58;;;;;;;2.84;56.97;102811.19;5061305;28;20045;-65
2023/02/09 09:02:04;;;;;;;46.25;24.42;;;;;;;2.79;56.95;102808.25;5064214;28;20400;-66
2023/02/09 09:04:31;;;;;;;42.80;24.48;;;;;;;3.00;56.84;102818.09;5067063;28;20382;-67
2023/02/09 09:06:59;;;;;;;42.10;24.67;;;;;;;3.24;55.83;102834.56;5072688;28;20408;-66
2023/02/09 09:09:27;;;;;;;39.35;24.02;;;;;;;3.03;55.81;102826.66;5073199;28;20079;-66
2023/02/09 09:11:55;;;;;;;39.47;23.20;;;;;;;3.41;55.29;102849.41;5067235;28;20139;-67
2023/02/09 09:14:25;;;;;;;42.45;23.50;;;;;;;3.40;54.85;102838.69;5067248;28;20048;-66
2023/02/09 09:16:56;;;;;;;41.10;24.25;;;;;;;3.29;54.86;102836.66;5074150;28;20402;-67
2023/02/09 09:19:24;;;;;;;42.38;23.45;;;;;;;3.37;54.59;102842.72;5062086;28;20059;-66
2023/02/09 09:21:51;;;;;;;41.60;22.70;;;;;;;3.12;55.41;102835.44;5073272;28;20047;-67
2023/02/09 09:24:20;;;;;;;39.28;24.17;;;;;;;3.24;55.11;102836.47;5067876;28;20040;-66
2023/02/09 09:26:47;;;;;;;35.45;21.92;;;;;;;3.42;54.55;102844.78;5070038;28;20041;-66
2023/02/09 09:29:17;;;;;;;37.83;22.83;;;;;;;3.49;54.10;102842.06;5061516;28;20044;-67
2023/02/09 09:31:45;;;;;;;41.88;21.85;;;;;;;3.44;54.32;102839.94;5064299;28;20060;-66
2023/02/09 09:34:12;;;;;;;36.92;21.88;;;;;;;3.59;54.11;102837.81;5061934;28;20051;-67
2023/02/09 09:36:39;;;;;;;34.42;20.92;;;;;;;3.83;53.62;102834.34;5069941;28;20068;-68
2023/02/09 09:39:13;;;;;;;36.60;21.25;;;;;;;3.82;52.88;102831.84;5074963;28;20040;-67
2023/02/09 09:41:40;;;;;;;35.28;20.58;;;;;;;3.99;52.78;102830.28;5073278;28;20419;-67
2023/02/09 09:44:43;;;;;;;39.45;19.50;;;;;;;3.97;52.84;102822.31;5062276;28;20063;-67
2023/02/09 09:47:23;;;;;;;35.85;19.63;;;;;;;3.94;52.36;102828.19;5062858;28;20408;-66
2023/02/09 09:49:50;;;;;;;41.42;19.92;;;;;;;3.97;52.63;102824.22;5056659;28;20037;-66
2023/02/09 09:52:28;;;;;;;38.78;20.00;;;;;;;4.25;52.26;102832.84;5055593;28;20056;-66
2023/02/09 09:54:57;;;;;;;37.70;20.50;;;;;;;4.36;51.96;102829.38;5061055;28;20059;-66
2023/02/09 09:57:26;;;;;;;34.47;20.90;;;;;;;4.48;51.83;102831.19;5058725;28;20052;-66
2023/02/09 10:00:00;;;;;;;36.47;20.55;;;;;;;4.46;51.52;102833.31;5056361;28;20060;-66
2023/02/09 10:02:32;;;;;;;37.40;19.92;;;;;;;4.56;51.46;102819.19;5057715;28;20504;-67
2023/02/09 10:05:20;;;;;;;37.95;21.02;;;;;;;4.36;51.52;102811.13;5069831;28;20044;-66
2023/02/09 10:08:04;;;;;;;33.53;20.67;;;;;;;4.46;51.16;102803.28;5057035;28;20047;-67
2023/02/09 10:10:55;;;;;;;33.58;19.58;;;;;;;4.56;50.98;102811.00;5059916;28;20050;-66
2023/02/09 10:13:25;;;;;;;41.65;22.15;;;;;;;4.72;51.33;102815.06;5063038;28;20045;-66
2023/02/09 10:15:56;;;;;;;41.17;23.38;;;;;;;4.56;50.97;102817.28;5060024;28;20041;-66
2023/02/09 10:18:26;;;;;;;40.55;23.40;;;;;;;4.79;50.97;102813.09;5062699;28;20064;-67
2023/02/09 10:20:57;;;;;;;39.15;22.30;;;;;;;4.89;50.85;102813.41;5062460;28;20515;-65
2023/02/09 10:23:27;;;;;;;36.10;21.85;;;;;;;5.20;50.23;102822.34;5069479;28;20403;-65
2023/02/09 10:26:01;;;;;;;38.60;21.38;;;;;;;5.64;49.45;102832.97;5064851;28;20068;-66
2023/02/09 10:28:32;;;;;;;36.08;22.33;;;;;;;5.26;50.23;102832.38;5064454;28;20049;-67
2023/02/09 10:31:01;;;;;;;41.45;23.63;;;;;;;5.13;49.85;102835.22;5068994;28;20048;-66
2023/02/09 10:33:37;;;;;;;66.00;35.70;;;;;;;5.28;49.96;102830.22;5058115;28;20044;-66
2023/02/09 10:36:07;;;;;;;44.55;26.48;;;;;;;5.26;50.46;102824.19;5055883;28;20056;-67
2023/02/09 10:38:34;;;;;;;;;;;;;;;5.37;49.71;102823.41;5060231;28;20060;-66
2023/02/09 10:41:07;;;;;;;41.03;23.02;;;;;;;5.54;49.16;102813.50;5064003;28;20344;-66
2023/02/09 10:43:35;;;;;;;47.83;22.77;;;;;;;5.56;49.43;102818.78;5062028;28;20045;-65
2023/02/09 10:46:16;;;;;;;39.83;23.60;;;;;;;5.91;48.69;102822.53;5067760;28;20407;-68
2023/02/09 10:48:46;;;;;;;49.55;25.42;;;;;;;5.59;49.12;102821.88;5065331;28;20041;-65
2023/02/09 10:51:27;;;;;;;44.70;24.75;;;;;;;5.64;48.97;102816.56;5060978;28;20045;-66
2023/02/09 10:53:59;;;;;;;45.28;25.08;;;;;;;5.65;48.78;102818.22;5056958;28;20037;-66
2023/02/09 10:56:34;;;;;;;44.33;25.05;;;;;;;5.37;49.22;102817.13;5063773;28;20049;-66
2023/02/09 10:59:14;;;;;;;50.95;26.50;;;;;;;5.63;49.33;102819.53;5047399;28;20041;-65
2023/02/09 11:01:43;;;;;;;49.75;27.05;;;;;;;5.56;49.40;102816.03;5057347;28;20052;-64
2023/02/09 11:04:20;;;;;;;43.60;26.02;;;;;;;5.68;49.18;102814.22;5065056;28;20041;-65
2023/02/09 11:06:55;;;;;;;53.55;26.63;;;;;;;5.67;49.02;102809.78;5068179;28;20391;-65
2023/02/09 11:09:28;;;;;;;46.15;25.17;;;;;;;5.78;49.03;102799.97;5066930;28;20067;-65
2023/02/09 11:11:55;;;;;;;44.72;25.67;;;;;;;5.78;48.76;102803.56;5072323;28;20055;-65
2023/02/09 11:14:30;;;;;;;45.05;26.35;;;;;;;5.96;48.83;102794.50;5053609;28;20048;-66
2023/02/09 11:17:16;;;;;;;48.80;26.27;;;;;;;6.01;48.17;102806.41;5071134;28;20036;-66
2023/02/09 11:20:13;;;;;;;54.88;29.05;;;;;;;6.03;48.09;102798.81;5067923;28;20052;-66
2023/02/09 11:22:46;;;;;;;43.00;27.17;;;;;;;6.12;47.53;102802.88;5069048;28;20040;-66
2023/02/09 11:25:24;;;;;;;47.42;25.33;;;;;;;6.10;47.35;102802.25;5054705;28;20048;-65
2023/02/09 11:27:57;;;;;;;50.17;25.45;;;;;;;5.99;48.16;102797.59;5054660;28;20501;-66
2023/02/09 11:31:02;;;;;;;38.97;24.98;;;;;;;6.33;47.30;102782.38;5070367;28;20686;-65
2023/02/09 11:33:39;;;;;;;39.80;23.73;;;;;;;6.21;47.17;102782.31;5073532;28;20051;-66
2023/02/09 11:36:16;;;;;;;43.05;25.58;;;;;;;6.23;47.62;102793.88;5067473;28;20468;-66
2023/02/09 11:38:50;;;;;;;46.38;25.58;;;;;;;6.42;47.06;102795.47;5063016;28;20428;-64
2023/02/09 11:44:41;;;;;;;45.83;25.67;;;;;;;6.23;47.14;102785.66;5069851;28;20044;-64
2023/02/09 11:47:13;;;;;;;46.38;27.25;;;;;;;6.33;47.28;102791.38;5058299;28;20404;-67
2023/02/09 11:49:47;;;;;;;55.55;27.30;;;;;;;6.58;47.08;102792.03;5055986;28;20097;-66